createdAt,value
2023-03-22T00:00:19.652Z,26.93
2023-03-22T00:02:47.095Z,27.37
2023-03-22T00:05:14.345Z,25.80
2023-03-22T00:07:41.484Z,27.37
2023-03-22T00:10:09.408Z,27.93
2023-03-22T00:12:36.614Z,28.47
2023-03-22T00:15:04.224Z,28.07
2023-03-22T00:17:32.838Z,27.93
2023-03-22T00:20:00.150Z,27.00
2023-03-22T00:22:27.300Z,27.97
2023-03-22T00:24:54.482Z,27.77
2023-03-22T00:27:21.562Z,29.00
2023-03-22T00:29:48.821Z,28.23
2023-03-22T00:32:16.476Z,29.53
2023-03-22T00:34:43.777Z,30.37
2023-03-22T00:37:10.987Z,30.43
2023-03-22T00:39:38.196Z,31.27
2023-03-22T00:42:07.018Z,29.20
2023-03-22T00:44:34.674Z,28.07
2023-03-22T00:47:01.895Z,29.17
2023-03-22T00:49:31.233Z,30.97
2023-03-22T00:51:58.465Z,28.97
2023-03-22T00:54:25.828Z,29.13
2023-03-22T00:56:53.011Z,29.00
2023-03-22T00:59:20.519Z,30.37
2023-03-22T01:01:48.223Z,30.47
2023-03-22T01:04:18.034Z,28.13
2023-03-22T01:06:47.135Z,28.67
2023-03-22T01:09:15.100Z,30.03
2023-03-22T01:11:43.807Z,29.97
2023-03-22T01:14:13.781Z,29.63
2023-03-22T01:16:41.173Z,30.03
2023-03-22T01:19:09.009Z,31.47
2023-03-22T01:21:36.477Z,30.60
2023-03-22T01:24:03.872Z,31.40
2023-03-22T01:26:31.245Z,32.43
2023-03-22T01:28:58.366Z,29.87
2023-03-22T01:31:25.838Z,30.60
2023-03-22T01:33:52.966Z,31.80
2023-03-22T01:36:21.885Z,33.50
2023-03-22T01:38:49.084Z,32.87
2023-03-22T01:41:17.560Z,31.67
2023-03-22T01:43:45.880Z,31.83
2023-03-22T01:46:13.160Z,32.67
2023-03-22T01:48:46.336Z,34.10
2023-03-22T01:51:22.988Z,31.67
2023-03-22T01:54:10.092Z,32.23
2023-03-22T01:56:41.464Z,33.53
2023-03-22T01:59:15.454Z,31.90
2023-03-22T02:02:19.284Z,31.17
2023-03-22T02:04:57.942Z,31.53
2023-03-22T02:07:28.006Z,31.47
2023-03-22T02:09:56.947Z,34.00
2023-03-22T02:12:56.159Z,33.97
2023-03-22T02:16:00.036Z,32.03
2023-03-22T02:19:29.183Z,31.67
2023-03-22T02:22:25.895Z,32.93
2023-03-22T02:25:49.287Z,32.83
2023-03-22T02:28:43.881Z,31.00
2023-03-22T02:31:27.775Z,32.10
2023-03-22T02:34:28.671Z,31.83
2023-03-22T02:37:22.766Z,33.00
2023-03-22T02:40:18.889Z,32.33
2023-03-22T02:43:06.910Z,32.83
2023-03-22T02:45:44.952Z,31.17
2023-03-22T02:48:22.510Z,31.60
2023-03-22T02:50:56.030Z,31.27
2023-03-22T02:53:43.659Z,29.40
2023-03-22T02:56:22.514Z,31.53
2023-03-22T02:58:57.303Z,30.50
2023-03-22T03:01:37.393Z,29.07
2023-03-22T03:04:10.089Z,30.87
2023-03-22T03:06:46.597Z,30.43
2023-03-22T03:09:19.565Z,31.27
2023-03-22T03:11:52.839Z,29.33
2023-03-22T03:14:32.077Z,29.37
2023-03-22T03:17:38.652Z,30.50
2023-03-22T03:20:30.240Z,30.57
2023-03-22T03:23:00.451Z,30.90
2023-03-22T03:25:46.264Z,30.00
2023-03-22T03:28:22.978Z,28.63
2023-03-22T03:31:09.879Z,31.03
2023-03-22T03:33:51.481Z,30.10
2023-03-22T03:36:20.449Z,27.67
2023-03-22T03:38:52.053Z,29.23
2023-03-22T03:41:25.635Z,30.30
2023-03-22T03:43:54.453Z,32.63
2023-03-22T03:46:22.029Z,29.57
2023-03-22T03:48:51.955Z,30.13
2023-03-22T03:51:19.657Z,27.13
2023-03-22T03:53:47.149Z,29.93
2023-03-22T03:56:14.537Z,28.33
2023-03-22T03:58:47.337Z,26.53
2023-03-22T04:01:14.729Z,28.77
2023-03-22T04:03:55.499Z,30.23
2023-03-22T04:06:44.670Z,28.20
2023-03-22T04:09:17.535Z,27.27
2023-03-22T04:11:49.460Z,26.63
2023-03-22T04:14:17.841Z,27.13
2023-03-22T04:16:48.387Z,26.73
2023-03-22T04:19:19.722Z,26.53
2023-03-22T04:21:47.096Z,28.47
2023-03-22T04:24:14.900Z,26.07
2023-03-22T04:26:44.848Z,27.10
2023-03-22T04:29:22.068Z,26.50
2023-03-22T04:31:54.194Z,26.23
2023-03-22T04:34:34.147Z,25.97
2023-03-22T04:37:03.531Z,27.47
2023-03-22T04:39:32.749Z,25.07
2023-03-22T04:42:28.732Z,26.90
2023-03-22T04:45:13.588Z,25.67
2023-03-22T04:47:43.351Z,26.83
2023-03-22T04:50:11.769Z,27.17
2023-03-22T04:52:50.002Z,26.40
2023-03-22T04:55:17.686Z,27.27
2023-03-22T04:57:46.137Z,26.50
2023-03-22T05:00:13.882Z,25.50
2023-03-22T05:02:41.858Z,26.47
2023-03-22T05:05:17.202Z,26.23
2023-03-22T05:07:46.103Z,25.87
2023-03-22T05:10:13.545Z,25.67
2023-03-22T05:12:41.437Z,27.57
2023-03-22T05:15:17.296Z,27.23
2023-03-22T05:17:44.918Z,25.80
2023-03-22T05:20:12.169Z,26.60
2023-03-22T05:22:41.457Z,24.43
2023-03-22T05:25:11.573Z,25.83
2023-03-22T05:27:42.051Z,24.63
2023-03-22T05:30:35.005Z,25.80
2023-03-22T05:33:22.098Z,24.53
2023-03-22T05:35:53.134Z,25.03
2023-03-22T05:38:22.837Z,24.13
2023-03-22T05:40:53.211Z,23.43
2023-03-22T05:43:20.894Z,24.87
2023-03-22T05:45:51.000Z,23.53
2023-03-22T05:48:44.564Z,23.10
2023-03-22T05:51:17.655Z,23.43
2023-03-22T05:53:48.193Z,22.63
2023-03-22T05:56:24.509Z,23.33
2023-03-22T05:58:59.439Z,21.53
2023-03-22T06:01:26.891Z,20.27
2023-03-22T06:04:09.977Z,20.77
2023-03-22T06:06:49.017Z,19.13
2023-03-22T06:09:31.941Z,19.70
2023-03-22T06:12:00.278Z,19.67
2023-03-22T06:14:27.732Z,18.50
2023-03-22T06:17:07.334Z,17.33
2023-03-22T06:19:34.719Z,17.40
2023-03-22T06:22:04.828Z,17.93
2023-03-22T06:24:34.800Z,16.83
2023-03-22T06:27:03.189Z,16.27
2023-03-22T06:29:31.282Z,16.80
2023-03-22T06:32:01.874Z,17.20
2023-03-22T06:34:30.990Z,17.07
2023-03-22T06:36:59.378Z,16.67
2023-03-22T06:39:38.718Z,17.70
2023-03-22T06:42:06.417Z,16.30
2023-03-22T06:44:34.277Z,15.10
2023-03-22T06:47:21.753Z,16.00
2023-03-22T06:49:58.330Z,14.17
2023-03-22T06:52:37.126Z,14.50
2023-03-22T06:55:09.136Z,13.70
2023-03-22T06:57:36.554Z,13.77
2023-03-22T07:00:05.341Z,12.97
2023-03-22T07:02:32.891Z,12.87
2023-03-22T07:05:26.798Z,11.57
2023-03-22T07:07:54.446Z,11.73
2023-03-22T07:10:21.965Z,12.80
2023-03-22T07:12:50.837Z,11.23
2023-03-22T07:15:18.690Z,11.30
2023-03-22T07:17:53.193Z,10.70
2023-03-22T07:20:20.545Z,10.73
2023-03-22T07:22:51.972Z,9.40
2023-03-22T07:25:21.502Z,9.97
2023-03-22T07:27:54.580Z,10.23
2023-03-22T07:30:22.602Z,10.33
2023-03-22T07:32:50.009Z,9.17
2023-03-22T07:35:18.926Z,10.33
2023-03-22T07:37:48.566Z,9.70
2023-03-22T07:40:23.551Z,10.90
2023-03-22T07:42:54.833Z,10.27
2023-03-22T07:45:41.871Z,10.37
2023-03-22T07:48:39.069Z,9.77
2023-03-22T07:51:35.268Z,9.80
2023-03-22T07:54:06.398Z,8.93
2023-03-22T07:56:35.731Z,8.20
2023-03-22T07:59:03.472Z,8.17
2023-03-22T08:01:31.092Z,8.90
2023-03-22T08:04:06.897Z,8.90
2023-03-22T08:06:58.643Z,9.37
2023-03-22T08:09:26.766Z,8.57
2023-03-22T08:11:53.996Z,9.03
2023-03-22T08:14:27.437Z,8.60
2023-03-22T08:17:06.021Z,7.43
2023-03-22T08:19:34.821Z,7.43
2023-03-22T08:22:03.284Z,7.17
2023-03-22T08:24:50.583Z,7.07
2023-03-22T08:27:26.417Z,7.70
2023-03-22T08:29:54.806Z,6.37
2023-03-22T08:32:22.227Z,6.67
2023-03-22T08:34:49.413Z,7.37
2023-03-22T08:37:16.688Z,6.63
2023-03-22T08:39:45.923Z,6.10
2023-03-22T08:42:21.319Z,10.20
2023-03-22T08:44:49.224Z,6.23
2023-03-22T08:47:16.624Z,6.37
2023-03-22T08:49:47.835Z,6.40
2023-03-22T08:52:22.811Z,7.30
2023-03-22T08:54:57.136Z,6.80
2023-03-22T08:57:44.511Z,6.63
2023-03-22T09:00:25.584Z,6.30
2023-03-22T09:03:09.397Z,6.50
2023-03-22T09:05:38.094Z,7.00
2023-03-22T09:08:06.935Z,6.60
2023-03-22T09:10:51.284Z,6.77
2023-03-22T09:13:21.111Z,6.13
2023-03-22T09:15:54.726Z,6.10
2023-03-22T09:18:28.063Z,5.70
2023-03-22T09:20:59.811Z,5.83
2023-03-22T09:23:34.129Z,6.20
2023-03-22T09:26:07.024Z,6.70
2023-03-22T09:28:36.122Z,6.03
2023-03-22T09:31:09.360Z,5.77
2023-03-22T09:33:38.758Z,6.30
2023-03-22T09:36:06.552Z,6.00
2023-03-22T09:38:35.439Z,5.50
2023-03-22T09:41:12.886Z,5.67
2023-03-22T09:43:46.968Z,5.40
2023-03-22T09:46:22.403Z,5.80
2023-03-22T09:48:50.705Z,6.20
2023-03-22T09:51:44.956Z,6.00
2023-03-22T09:54:33.104Z,6.00
2023-03-22T09:57:38.934Z,6.67
2023-03-22T10:01:06.926Z,6.80
2023-03-22T10:04:10.609Z,6.10
2023-03-22T10:06:38.002Z,6.27
2023-03-22T10:09:32.439Z,6.07
2023-03-22T10:12:18.271Z,6.30
2023-03-22T10:15:24.255Z,6.33
2023-03-22T10:17:55.534Z,6.70
2023-03-22T10:20:42.554Z,7.20
2023-03-22T10:23:17.717Z,7.10
2023-03-22T10:25:44.971Z,6.53
2023-03-22T10:28:41.222Z,7.10
2023-03-22T10:31:17.506Z,6.13
2023-03-22T10:34:02.464Z,6.40
2023-03-22T10:36:35.015Z,6.40
2023-03-22T10:39:29.865Z,6.27
2023-03-22T10:42:02.196Z,6.57
2023-03-22T10:44:36.251Z,6.70
2023-03-22T10:47:08.116Z,6.57
2023-03-22T10:49:45.593Z,6.40
2023-03-22T10:52:42.023Z,6.47
2023-03-22T10:55:16.899Z,6.03
2023-03-22T10:58:10.394Z,6.63
2023-03-22T11:00:41.182Z,6.23
2023-03-22T11:03:17.441Z,5.97
2023-03-22T11:06:03.091Z,5.83
2023-03-22T11:08:39.551Z,5.53
2023-03-22T11:11:15.682Z,5.83
2023-03-22T11:13:43.281Z,5.57
2023-03-22T11:16:10.670Z,6.68
2023-03-22T11:18:41.874Z,5.90
2023-03-22T11:21:16.551Z,5.77
2023-03-22T11:23:57.792Z,5.70
2023-03-22T11:26:30.810Z,5.73
2023-03-22T11:29:06.727Z,6.23
2023-03-22T11:31:55.921Z,6.30
2023-03-22T11:34:28.470Z,6.00
2023-03-22T11:36:58.838Z,6.63
2023-03-22T11:39:29.753Z,5.57
2023-03-22T11:42:01.554Z,5.67
2023-03-22T11:44:35.396Z,5.80
2023-03-22T11:47:04.443Z,5.67
2023-03-22T11:49:47.204Z,7.13
2023-03-22T11:52:26.572Z,6.33
2023-03-22T11:54:55.811Z,6.50
2023-03-22T11:57:30.762Z,6.30
2023-03-22T12:00:08.037Z,6.90
2023-03-22T12:02:45.133Z,6.63
2023-03-22T12:05:27.170Z,6.67
2023-03-22T12:08:11.512Z,6.87
2023-03-22T12:10:42.857Z,6.43
2023-03-22T12:13:36.364Z,6.63
2023-03-22T12:16:06.902Z,5.97
2023-03-22T12:19:27.133Z,6.30
2023-03-22T12:21:55.757Z,5.90
2023-03-22T12:24:32.741Z,5.80
2023-03-22T12:27:16.823Z,6.10
2023-03-22T12:30:01.781Z,5.50
2023-03-22T12:32:42.113Z,5.53
2023-03-22T12:35:18.986Z,5.60
2023-03-22T12:37:52.482Z,5.63
2023-03-22T12:40:32.564Z,5.53
2023-03-22T12:43:08.096Z,5.57
2023-03-22T12:45:42.623Z,5.07
2023-03-22T12:48:22.342Z,5.40
2023-03-22T12:51:00.759Z,4.67
2023-03-22T12:53:45.769Z,4.90
2023-03-22T12:56:18.020Z,5.00
2023-03-22T12:58:56.417Z,4.67
2023-03-22T13:01:52.123Z,4.43
2023-03-22T13:04:37.758Z,4.50
2023-03-22T13:07:32.661Z,4.03
2023-03-22T13:10:01.706Z,3.73
2023-03-22T13:12:33.057Z,4.10
2023-03-22T13:15:42.188Z,3.53
2023-03-22T13:18:35.754Z,4.13
2023-03-22T13:21:19.231Z,3.63
2023-03-22T13:24:09.839Z,3.10
2023-03-22T13:26:53.310Z,3.63
2023-03-22T13:29:24.790Z,3.00
2023-03-22T13:31:52.468Z,3.13
2023-03-22T13:34:33.942Z,2.53
2023-03-22T13:37:05.321Z,2.60
2023-03-22T13:39:34.767Z,2.70
2023-03-22T13:42:22.858Z,2.43
2023-03-22T13:45:03.536Z,2.77
2023-03-22T13:47:38.337Z,2.87
2023-03-22T13:50:29.530Z,2.70
2023-03-22T13:53:06.565Z,3.20
2023-03-22T13:56:01.264Z,2.93
2023-03-22T13:58:46.583Z,2.53
2023-03-22T14:01:37.607Z,2.70
2023-03-22T14:04:14.381Z,2.50
2023-03-22T14:06:57.549Z,2.30
2023-03-22T14:09:34.509Z,2.30
2023-03-22T14:12:23.121Z,2.93
2023-03-22T14:15:02.469Z,2.17
2023-03-22T14:17:41.827Z,2.17
2023-03-22T14:20:15.840Z,2.50
